sensor_id;sensor_type;location;lat;lon;timestamp;temperature;humidity
68867;SHT30;56451;44.804;20.476;2022-07-17T00:01:06;26.20;44.09
68867;SHT30;56451;44.804;20.476;2022-07-17T00:03:32;26.09;44.12
68867;SHT30;56451;44.804;20.476;2022-07-17T00:05:58;25.99;44.29
68867;SHT30;56451;44.804;20.476;2022-07-17T00:08:24;25.92;44.45
68867;SHT30;56451;44.804;20.476;2022-07-17T00:10:50;25.82;44.79
68867;SHT30;56451;44.804;20.476;2022-07-17T00:13:17;25.74;45.53
68867;SHT30;56451;44.804;20.476;2022-07-17T00:15:43;25.70;46.45
68867;SHT30;56451;44.804;20.476;2022-07-17T00:18:08;25.63;46.58
68867;SHT30;56451;44.804;20.476;2022-07-17T00:20:35;25.53;47.04
68867;SHT30;56451;44.804;20.476;2022-07-17T00:23:01;25.47;48.02
68867;SHT30;56451;44.804;20.476;2022-07-17T00:25:27;25.37;48.09
68867;SHT30;56451;44.804;20.476;2022-07-17T00:27:53;25.28;48.10
68867;SHT30;56451;44.804;20.476;2022-07-17T00:30:19;25.22;48.44
68867;SHT30;56451;44.804;20.476;2022-07-17T00:32:45;25.15;49.00
68867;SHT30;56451;44.804;20.476;2022-07-17T00:35:11;25.07;49.10
68867;SHT30;56451;44.804;20.476;2022-07-17T00:37:40;25.00;48.22
68867;SHT30;56451;44.804;20.476;2022-07-17T00:40:06;24.87;48.31
68867;SHT30;56451;44.804;20.476;2022-07-17T00:42:33;24.87;48.75
68867;SHT30;56451;44.804;20.476;2022-07-17T00:44:58;24.82;48.83
68867;SHT30;56451;44.804;20.476;2022-07-17T00:47:24;24.83;48.78
68867;SHT30;56451;44.804;20.476;2022-07-17T00:49:50;24.83;47.15
68867;SHT30;56451;44.804;20.476;2022-07-17T00:52:17;24.82;46.88
68867;SHT30;56451;44.804;20.476;2022-07-17T00:54:45;24.87;46.70
68867;SHT30;56451;44.804;20.476;2022-07-17T00:57:14;24.92;46.78
68867;SHT30;56451;44.804;20.476;2022-07-17T00:59:41;24.99;46.96
68867;SHT30;56451;44.804;20.476;2022-07-17T01:02:10;24.97;47.17
68867;SHT30;56451;44.804;20.476;2022-07-17T01:04:38;25.02;47.26
68867;SHT30;56451;44.804;20.476;2022-07-17T01:07:06;25.02;47.26
68867;SHT30;56451;44.804;20.476;2022-07-17T01:09:33;25.07;47.04
68867;SHT30;56451;44.804;20.476;2022-07-17T01:12:00;25.07;46.60
68867;SHT30;56451;44.804;20.476;2022-07-17T01:14:26;25.05;46.13
68867;SHT30;56451;44.804;20.476;2022-07-17T01:16:53;25.07;45.77
68867;SHT30;56451;44.804;20.476;2022-07-17T01:19:20;25.10;45.82
68867;SHT30;56451;44.804;20.476;2022-07-17T01:21:48;25.13;45.47
68867;SHT30;56451;44.804;20.476;2022-07-17T01:24:15;25.12;45.40
68867;SHT30;56451;44.804;20.476;2022-07-17T01:26:45;25.10;45.30
68867;SHT30;56451;44.804;20.476;2022-07-17T01:29:12;25.10;45.17
68867;SHT30;56451;44.804;20.476;2022-07-17T01:31:39;25.12;45.00
68867;SHT30;56451;44.804;20.476;2022-07-17T01:34:07;25.12;44.88
68867;SHT30;56451;44.804;20.476;2022-07-17T01:36:34;25.12;44.50
68867;SHT30;56451;44.804;20.476;2022-07-17T01:39:00;25.13;44.34
68867;SHT30;56451;44.804;20.476;2022-07-17T01:41:26;25.13;44.27
68867;SHT30;56451;44.804;20.476;2022-07-17T01:43:52;25.16;44.40
68867;SHT30;56451;44.804;20.476;2022-07-17T01:46:17;25.13;44.25
68867;SHT30;56451;44.804;20.476;2022-07-17T01:48:43;25.15;44.34
68867;SHT30;56451;44.804;20.476;2022-07-17T01:51:09;25.13;44.55
68867;SHT30;56451;44.804;20.476;2022-07-17T01:53:35;25.07;45.11
68867;SHT30;56451;44.804;20.476;2022-07-17T01:56:01;24.96;45.64
68867;SHT30;56451;44.804;20.476;2022-07-17T01:58:26;24.85;46.29
68867;SHT30;56451;44.804;20.476;2022-07-17T02:00:52;24.71;46.90
68867;SHT30;56451;44.804;20.476;2022-07-17T02:03:19;24.61;47.14
68867;SHT30;56451;44.804;20.476;2022-07-17T02:05:45;24.57;47.49
68867;SHT30;56451;44.804;20.476;2022-07-17T02:08:11;24.45;47.88
68867;SHT30;56451;44.804;20.476;2022-07-17T02:10:37;24.39;48.12
68867;SHT30;56451;44.804;20.476;2022-07-17T02:13:03;24.38;48.00
68867;SHT30;56451;44.804;20.476;2022-07-17T02:15:29;24.35;47.69
68867;SHT30;56451;44.804;20.476;2022-07-17T02:17:55;24.28;48.12
68867;SHT30;56451;44.804;20.476;2022-07-17T02:20:22;24.22;48.36
68867;SHT30;56451;44.804;20.476;2022-07-17T02:22:48;24.22;48.46
68867;SHT30;56451;44.804;20.476;2022-07-17T02:25:14;24.18;48.61
68867;SHT30;56451;44.804;20.476;2022-07-17T02:27:40;24.11;48.89
68867;SHT30;56451;44.804;20.476;2022-07-17T02:30:12;24.06;49.12
68867;SHT30;56451;44.804;20.476;2022-07-17T02:32:39;24.07;49.34
68867;SHT30;56451;44.804;20.476;2022-07-17T02:35:06;24.07;49.48
68867;SHT30;56451;44.804;20.476;2022-07-17T02:37:32;24.11;49.34
68867;SHT30;56451;44.804;20.476;2022-07-17T02:39:58;24.10;49.63
68867;SHT30;56451;44.804;20.476;2022-07-17T02:42:28;24.08;49.65
68867;SHT30;56451;44.804;20.476;2022-07-17T02:44:55;24.08;49.88
68867;SHT30;56451;44.804;20.476;2022-07-17T02:47:30;24.07;49.98
68867;SHT30;56451;44.804;20.476;2022-07-17T02:49:57;24.07;49.93
68867;SHT30;56451;44.804;20.476;2022-07-17T02:52:23;24.06;50.19
68867;SHT30;56451;44.804;20.476;2022-07-17T02:54:49;23.96;50.42
68867;SHT30;56451;44.804;20.476;2022-07-17T02:57:15;23.97;50.58
68867;SHT30;56451;44.804;20.476;2022-07-17T02:59:41;23.94;50.09
68867;SHT30;56451;44.804;20.476;2022-07-17T03:02:07;23.92;50.31
68867;SHT30;56451;44.804;20.476;2022-07-17T03:04:33;23.90;50.54
68867;SHT30;56451;44.804;20.476;2022-07-17T03:06:59;23.83;50.57
68867;SHT30;56451;44.804;20.476;2022-07-17T03:09:25;23.69;50.56
68867;SHT30;56451;44.804;20.476;2022-07-17T03:11:51;23.60;50.75
68867;SHT30;56451;44.804;20.476;2022-07-17T03:14:17;23.51;50.65
68867;SHT30;56451;44.804;20.476;2022-07-17T03:16:43;23.39;51.05
68867;SHT30;56451;44.804;20.476;2022-07-17T03:19:09;23.31;50.48
68867;SHT30;56451;44.804;20.476;2022-07-17T03:21:34;23.25;51.34
68867;SHT30;56451;44.804;20.476;2022-07-17T03:24:00;23.18;51.08
68867;SHT30;56451;44.804;20.476;2022-07-17T03:26:26;23.21;51.12
68867;SHT30;56451;44.804;20.476;2022-07-17T03:28:52;23.18;50.18
68867;SHT30;56451;44.804;20.476;2022-07-17T03:31:18;23.15;50.92
68867;SHT30;56451;44.804;20.476;2022-07-17T03:33:44;23.18;50.19
68867;SHT30;56451;44.804;20.476;2022-07-17T03:36:09;23.21;50.50
68867;SHT30;56451;44.804;20.476;2022-07-17T03:38:35;23.25;50.56
68867;SHT30;56451;44.804;20.476;2022-07-17T03:41:01;23.28;50.33
68867;SHT30;56451;44.804;20.476;2022-07-17T03:43:27;23.38;50.18
68867;SHT30;56451;44.804;20.476;2022-07-17T03:45:52;23.39;50.20
68867;SHT30;56451;44.804;20.476;2022-07-17T03:48:18;23.39;50.04
68867;SHT30;56451;44.804;20.476;2022-07-17T03:50:44;23.38;49.31
68867;SHT30;56451;44.804;20.476;2022-07-17T03:53:10;23.38;49.62
68867;SHT30;56451;44.804;20.476;2022-07-17T03:55:36;23.37;49.55
68867;SHT30;56451;44.804;20.476;2022-07-17T03:58:02;23.43;49.04
68867;SHT30;56451;44.804;20.476;2022-07-17T04:00:27;23.45;48.42
68867;SHT30;56451;44.804;20.476;2022-07-17T04:02:53;23.45;48.61
68867;SHT30;56451;44.804;20.476;2022-07-17T04:05:19;23.48;48.44
68867;SHT30;56451;44.804;20.476;2022-07-17T04:07:45;23.52;48.55
68867;SHT30;56451;44.804;20.476;2022-07-17T04:10:13;23.55;48.34
68867;SHT30;56451;44.804;20.476;2022-07-17T04:12:39;23.55;48.25
68867;SHT30;56451;44.804;20.476;2022-07-17T04:15:06;23.59;47.76
68867;SHT30;56451;44.804;20.476;2022-07-17T04:17:32;23.51;47.95
68867;SHT30;56451;44.804;20.476;2022-07-17T04:19:58;23.52;47.84
68867;SHT30;56451;44.804;20.476;2022-07-17T04:22:24;23.49;47.66
68867;SHT30;56451;44.804;20.476;2022-07-17T04:24:50;23.49;46.83
68867;SHT30;56451;44.804;20.476;2022-07-17T04:27:16;23.46;47.27
68867;SHT30;56451;44.804;20.476;2022-07-17T04:29:42;23.46;47.31
68867;SHT30;56451;44.804;20.476;2022-07-17T04:32:09;23.49;47.26
68867;SHT30;56451;44.804;20.476;2022-07-17T04:34:35;23.48;47.06
68867;SHT30;56451;44.804;20.476;2022-07-17T04:37:02;23.51;45.85
68867;SHT30;56451;44.804;20.476;2022-07-17T04:39:28;23.45;46.15
68867;SHT30;56451;44.804;20.476;2022-07-17T04:41:54;23.46;46.10
68867;SHT30;56451;44.804;20.476;2022-07-17T04:44:20;23.52;45.71
68867;SHT30;56451;44.804;20.476;2022-07-17T04:46:46;23.55;45.19
68867;SHT30;56451;44.804;20.476;2022-07-17T04:49:12;23.55;45.34
68867;SHT30;56451;44.804;20.476;2022-07-17T04:51:38;23.53;45.37
68867;SHT30;56451;44.804;20.476;2022-07-17T04:54:03;23.56;45.35
68867;SHT30;56451;44.804;20.476;2022-07-17T04:56:29;23.55;45.35
68867;SHT30;56451;44.804;20.476;2022-07-17T04:58:55;23.53;45.37
68867;SHT30;56451;44.804;20.476;2022-07-17T05:01:21;23.52;45.14
68867;SHT30;56451;44.804;20.476;2022-07-17T05:03:46;23.55;45.42
68867;SHT30;56451;44.804;20.476;2022-07-17T05:06:12;23.58;45.02
68867;SHT30;56451;44.804;20.476;2022-07-17T05:08:38;23.52;44.75
68867;SHT30;56451;44.804;20.476;2022-07-17T05:11:04;23.53;45.17
68867;SHT30;56451;44.804;20.476;2022-07-17T05:13:29;23.55;45.03
68867;SHT30;56451;44.804;20.476;2022-07-17T05:15:55;23.60;45.30
68867;SHT30;56451;44.804;20.476;2022-07-17T05:18:21;23.59;44.74
68867;SHT30;56451;44.804;20.476;2022-07-17T05:20:47;23.60;45.18
68867;SHT30;56451;44.804;20.476;2022-07-17T05:23:13;23.56;44.74
68867;SHT30;56451;44.804;20.476;2022-07-17T05:25:39;23.46;44.84
68867;SHT30;56451;44.804;20.476;2022-07-17T05:28:05;23.39;44.32
68867;SHT30;56451;44.804;20.476;2022-07-17T05:30:31;23.28;44.97
68867;SHT30;56451;44.804;20.476;2022-07-17T05:32:56;23.29;44.78
68867;SHT30;56451;44.804;20.476;2022-07-17T05:35:22;23.32;44.91
68867;SHT30;56451;44.804;20.476;2022-07-17T05:37:48;23.35;45.03
68867;SHT30;56451;44.804;20.476;2022-07-17T05:40:14;23.38;44.67
68867;SHT30;56451;44.804;20.476;2022-07-17T05:42:40;23.48;44.32
68867;SHT30;56451;44.804;20.476;2022-07-17T05:45:06;23.53;44.59
68867;SHT30;56451;44.804;20.476;2022-07-17T05:47:32;23.58;44.01
68867;SHT30;56451;44.804;20.476;2022-07-17T05:49:58;23.59;44.08
68867;SHT30;56451;44.804;20.476;2022-07-17T05:52:24;23.56;44.06
68867;SHT30;56451;44.804;20.476;2022-07-17T05:54:50;23.59;43.90
68867;SHT30;56451;44.804;20.476;2022-07-17T05:57:15;23.59;43.91
68867;SHT30;56451;44.804;20.476;2022-07-17T05:59:41;23.55;43.66
68867;SHT30;56451;44.804;20.476;2022-07-17T06:02:07;23.49;43.49
68867;SHT30;56451;44.804;20.476;2022-07-17T06:04:33;23.45;43.59
68867;SHT30;56451;44.804;20.476;2022-07-17T06:06:59;23.43;43.56
68867;SHT30;56451;44.804;20.476;2022-07-17T06:09:25;23.45;43.91
68867;SHT30;56451;44.804;20.476;2022-07-17T06:11:51;23.39;44.01
68867;SHT30;56451;44.804;20.476;2022-07-17T06:14:17;23.41;44.19
68867;SHT30;56451;44.804;20.476;2022-07-17T06:16:42;23.42;44.38
68867;SHT30;56451;44.804;20.476;2022-07-17T06:19:08;23.42;43.90
68867;SHT30;56451;44.804;20.476;2022-07-17T06:21:34;23.39;43.85
68867;SHT30;56451;44.804;20.476;2022-07-17T06:24:00;23.31;44.25
68867;SHT30;56451;44.804;20.476;2022-07-17T06:26:26;23.25;43.95
68867;SHT30;56451;44.804;20.476;2022-07-17T06:28:52;23.18;43.89
68867;SHT30;56451;44.804;20.476;2022-07-17T06:31:18;23.12;44.10
68867;SHT30;56451;44.804;20.476;2022-07-17T06:33:43;23.11;44.44
68867;SHT30;56451;44.804;20.476;2022-07-17T06:36:09;23.16;44.97
68867;SHT30;56451;44.804;20.476;2022-07-17T06:38:35;23.26;44.12
68867;SHT30;56451;44.804;20.476;2022-07-17T06:41:02;23.38;44.08
68867;SHT30;56451;44.804;20.476;2022-07-17T06:43:28;23.45;43.74
68867;SHT30;56451;44.804;20.476;2022-07-17T06:45:53;23.46;43.28
68867;SHT30;56451;44.804;20.476;2022-07-17T06:48:20;23.51;43.45
68867;SHT30;56451;44.804;20.476;2022-07-17T06:50:46;23.55;43.67
68867;SHT30;56451;44.804;20.476;2022-07-17T06:53:13;23.59;43.19
68867;SHT30;56451;44.804;20.476;2022-07-17T06:55:39;23.62;43.28
68867;SHT30;56451;44.804;20.476;2022-07-17T06:58:05;23.72;43.03
68867;SHT30;56451;44.804;20.476;2022-07-17T07:00:31;23.74;42.34
68867;SHT30;56451;44.804;20.476;2022-07-17T07:02:57;23.76;42.41
68867;SHT30;56451;44.804;20.476;2022-07-17T07:05:23;23.80;42.36
68867;SHT30;56451;44.804;20.476;2022-07-17T07:07:48;23.92;42.20
68867;SHT30;56451;44.804;20.476;2022-07-17T07:10:15;23.97;41.81
68867;SHT30;56451;44.804;20.476;2022-07-17T07:12:40;24.03;41.95
68867;SHT30;56451;44.804;20.476;2022-07-17T07:15:07;24.17;41.27
68867;SHT30;56451;44.804;20.476;2022-07-17T07:17:36;24.24;41.02
68867;SHT30;56451;44.804;20.476;2022-07-17T07:20:03;24.29;41.03
68867;SHT30;56451;44.804;20.476;2022-07-17T07:22:31;24.35;41.54
68867;SHT30;56451;44.804;20.476;2022-07-17T07:24:56;24.37;40.59
68867;SHT30;56451;44.804;20.476;2022-07-17T07:27:22;24.38;39.70
68867;SHT30;56451;44.804;20.476;2022-07-17T07:29:48;24.47;40.26
68867;SHT30;56451;44.804;20.476;2022-07-17T07:32:14;24.44;39.00
68867;SHT30;56451;44.804;20.476;2022-07-17T07:34:39;24.44;38.17
68867;SHT30;56451;44.804;20.476;2022-07-17T07:37:05;24.48;38.45
68867;SHT30;56451;44.804;20.476;2022-07-17T07:39:31;24.51;37.86
68867;SHT30;56451;44.804;20.476;2022-07-17T07:41:57;24.52;38.42
68867;SHT30;56451;44.804;20.476;2022-07-17T07:44:23;24.61;38.68
68867;SHT30;56451;44.804;20.476;2022-07-17T07:46:49;24.68;38.25
68867;SHT30;56451;44.804;20.476;2022-07-17T07:49:15;24.65;38.72
68867;SHT30;56451;44.804;20.476;2022-07-17T07:51:41;24.69;39.30
68867;SHT30;56451;44.804;20.476;2022-07-17T07:54:07;24.79;39.45
68867;SHT30;56451;44.804;20.476;2022-07-17T07:56:33;24.85;39.38
68867;SHT30;56451;44.804;20.476;2022-07-17T07:58:59;24.82;39.87
68867;SHT30;56451;44.804;20.476;2022-07-17T08:01:25;24.73;39.16
68867;SHT30;56451;44.804;20.476;2022-07-17T08:03:50;24.69;40.20
68867;SHT30;56451;44.804;20.476;2022-07-17T08:06:16;24.69;40.71
68867;SHT30;56451;44.804;20.476;2022-07-17T08:08:42;24.75;40.85
68867;SHT30;56451;44.804;20.476;2022-07-17T08:11:08;24.82;40.17
68867;SHT30;56451;44.804;20.476;2022-07-17T08:13:34;24.83;39.62
68867;SHT30;56451;44.804;20.476;2022-07-17T08:16:00;24.93;39.70
68867;SHT30;56451;44.804;20.476;2022-07-17T08:18:26;25.03;39.82
68867;SHT30;56451;44.804;20.476;2022-07-17T08:20:53;25.10;37.65
68867;SHT30;56451;44.804;20.476;2022-07-17T08:23:21;25.12;36.92
68867;SHT30;56451;44.804;20.476;2022-07-17T08:25:47;25.22;36.55
68867;SHT30;56451;44.804;20.476;2022-07-17T08:28:14;25.31;36.28
68867;SHT30;56451;44.804;20.476;2022-07-17T08:30:40;25.37;36.60
68867;SHT30;56451;44.804;20.476;2022-07-17T08:33:07;25.43;36.90
68867;SHT30;56451;44.804;20.476;2022-07-17T08:35:36;25.51;36.23
68867;SHT30;56451;44.804;20.476;2022-07-17T08:38:03;25.50;35.32
68867;SHT30;56451;44.804;20.476;2022-07-17T08:40:31;25.58;35.46
68867;SHT30;56451;44.804;20.476;2022-07-17T08:42:59;25.57;35.60
68867;SHT30;56451;44.804;20.476;2022-07-17T08:45:25;25.58;35.76
68867;SHT30;56451;44.804;20.476;2022-07-17T08:47:53;25.61;36.00
68867;SHT30;56451;44.804;20.476;2022-07-17T08:50:30;25.65;36.02
68867;SHT30;56451;44.804;20.476;2022-07-17T08:52:57;25.75;36.17
68867;SHT30;56451;44.804;20.476;2022-07-17T08:55:23;25.77;35.90
68867;SHT30;56451;44.804;20.476;2022-07-17T08:57:48;25.75;35.69
68867;SHT30;56451;44.804;20.476;2022-07-17T09:00:16;25.72;35.25
68867;SHT30;56451;44.804;20.476;2022-07-17T09:03:00;25.72;35.63
68867;SHT30;56451;44.804;20.476;2022-07-17T09:05:38;25.80;35.82
68867;SHT30;56451;44.804;20.476;2022-07-17T09:08:05;25.86;35.73
68867;SHT30;56451;44.804;20.476;2022-07-17T09:10:34;25.92;35.72
68867;SHT30;56451;44.804;20.476;2022-07-17T09:13:01;25.99;34.97
68867;SHT30;56451;44.804;20.476;2022-07-17T09:15:27;25.99;35.04
68867;SHT30;56451;44.804;20.476;2022-07-17T09:17:55;26.08;35.19
68867;SHT30;56451;44.804;20.476;2022-07-17T09:20:22;26.11;34.12
68867;SHT30;56451;44.804;20.476;2022-07-17T09:22:59;26.08;33.08
68867;SHT30;56451;44.804;20.476;2022-07-17T09:25:55;26.02;34.07
68867;SHT30;56451;44.804;20.476;2022-07-17T09:28:22;25.96;34.64
68867;SHT30;56451;44.804;20.476;2022-07-17T09:30:51;25.99;35.55
68867;SHT30;56451;44.804;20.476;2022-07-17T09:33:19;26.05;33.67
68867;SHT30;56451;44.804;20.476;2022-07-17T09:35:57;26.09;33.63
68867;SHT30;56451;44.804;20.476;2022-07-17T09:38:34;26.12;32.98
68867;SHT30;56451;44.804;20.476;2022-07-17T09:41:08;26.11;32.99
68867;SHT30;56451;44.804;20.476;2022-07-17T09:43:56;26.16;32.83
68867;SHT30;56451;44.804;20.476;2022-07-17T09:48:55;26.16;33.50
68867;SHT30;56451;44.804;20.476;2022-07-17T09:51:24;26.22;34.17
68867;SHT30;56451;44.804;20.476;2022-07-17T09:53:52;26.26;33.82
68867;SHT30;56451;44.804;20.476;2022-07-17T09:56:20;26.23;33.95
68867;SHT30;56451;44.804;20.476;2022-07-17T09:58:52;26.29;33.99
68867;SHT30;56451;44.804;20.476;2022-07-17T10:01:19;26.30;33.65
68867;SHT30;56451;44.804;20.476;2022-07-17T10:03:46;26.35;33.24
68867;SHT30;56451;44.804;20.476;2022-07-17T10:06:14;26.37;33.09
68867;SHT30;56451;44.804;20.476;2022-07-17T10:08:40;26.36;33.56
68867;SHT30;56451;44.804;20.476;2022-07-17T10:11:08;26.40;33.64
68867;SHT30;56451;44.804;20.476;2022-07-17T10:13:39;26.39;33.84
68867;SHT30;56451;44.804;20.476;2022-07-17T10:16:06;26.41;32.21
68867;SHT30;56451;44.804;20.476;2022-07-17T10:18:43;26.46;32.60
68867;SHT30;56451;44.804;20.476;2022-07-17T10:23:35;26.49;32.69
68867;SHT30;56451;44.804;20.476;2022-07-17T10:26:02;26.50;32.89
68867;SHT30;56451;44.804;20.476;2022-07-17T10:28:41;26.54;33.11
68867;SHT30;56451;44.804;20.476;2022-07-17T10:31:07;26.63;32.55
68867;SHT30;56451;44.804;20.476;2022-07-17T10:33:34;26.65;32.32
68867;SHT30;56451;44.804;20.476;2022-07-17T10:36:00;26.71;32.34
68867;SHT30;56451;44.804;20.476;2022-07-17T10:38:27;26.81;31.87
68867;SHT30;56451;44.804;20.476;2022-07-17T10:41:00;26.84;30.78
68867;SHT30;56451;44.804;20.476;2022-07-17T10:43:26;26.77;31.48
68867;SHT30;56451;44.804;20.476;2022-07-17T10:45:52;26.78;31.23
68867;SHT30;56451;44.804;20.476;2022-07-17T10:48:20;26.77;31.39
68867;SHT30;56451;44.804;20.476;2022-07-17T10:50:52;26.80;30.78
68867;SHT30;56451;44.804;20.476;2022-07-17T10:53:29;26.84;30.52
68867;SHT30;56451;44.804;20.476;2022-07-17T10:56:08;26.81;30.40
68867;SHT30;56451;44.804;20.476;2022-07-17T10:58:39;26.81;31.07
68867;SHT30;56451;44.804;20.476;2022-07-17T11:01:19;26.80;30.84
68867;SHT30;56451;44.804;20.476;2022-07-17T11:03:56;26.76;30.88
68867;SHT30;56451;44.804;20.476;2022-07-17T11:11:46;26.76;31.46
68867;SHT30;56451;44.804;20.476;2022-07-17T11:17:00;26.64;31.61
68867;SHT30;56451;44.804;20.476;2022-07-17T11:19:29;26.77;30.85
68867;SHT30;56451;44.804;20.476;2022-07-17T11:21:58;26.87;30.25
68867;SHT30;56451;44.804;20.476;2022-07-17T11:24:24;26.91;30.62
68867;SHT30;56451;44.804;20.476;2022-07-17T11:26:52;26.94;30.59
68867;SHT30;56451;44.804;20.476;2022-07-17T11:29:18;26.98;29.81
68867;SHT30;56451;44.804;20.476;2022-07-17T11:31:44;26.95;30.06
68867;SHT30;56451;44.804;20.476;2022-07-17T11:34:12;26.98;30.20
68867;SHT30;56451;44.804;20.476;2022-07-17T11:36:40;26.98;30.59
68867;SHT30;56451;44.804;20.476;2022-07-17T11:39:14;26.98;31.10
68867;SHT30;56451;44.804;20.476;2022-07-17T11:41:43;27.04;30.18
68867;SHT30;56451;44.804;20.476;2022-07-17T11:44:12;27.01;30.59
68867;SHT30;56451;44.804;20.476;2022-07-17T11:46:40;26.99;30.85
68867;SHT30;56451;44.804;20.476;2022-07-17T11:49:06;27.01;30.17
68867;SHT30;56451;44.804;20.476;2022-07-17T11:51:38;27.04;30.18
68867;SHT30;56451;44.804;20.476;2022-07-17T11:54:14;27.09;29.91
68867;SHT30;56451;44.804;20.476;2022-07-17T11:56:42;27.11;29.73
68867;SHT30;56451;44.804;20.476;2022-07-17T11:59:10;27.18;29.89
68867;SHT30;56451;44.804;20.476;2022-07-17T12:01:43;27.21;29.86
68867;SHT30;56451;44.804;20.476;2022-07-17T12:04:14;27.19;30.09
68867;SHT30;56451;44.804;20.476;2022-07-17T12:06:40;27.24;29.45
68867;SHT30;56451;44.804;20.476;2022-07-17T12:09:07;27.16;29.60
68867;SHT30;56451;44.804;20.476;2022-07-17T12:11:45;27.15;29.54
68867;SHT30;56451;44.804;20.476;2022-07-17T12:14:11;27.16;29.72
68867;SHT30;56451;44.804;20.476;2022-07-17T12:16:37;27.18;29.65
68867;SHT30;56451;44.804;20.476;2022-07-17T12:19:14;27.18;29.95
68867;SHT30;56451;44.804;20.476;2022-07-17T12:22:02;27.21;30.14
68867;SHT30;56451;44.804;20.476;2022-07-17T12:24:36;27.31;30.52
68867;SHT30;56451;44.804;20.476;2022-07-17T12:27:08;27.31;30.38
68867;SHT30;56451;44.804;20.476;2022-07-17T12:29:34;27.29;30.19
68867;SHT30;56451;44.804;20.476;2022-07-17T12:32:06;27.29;30.50
68867;SHT30;56451;44.804;20.476;2022-07-17T12:34:34;27.29;30.27
68867;SHT30;56451;44.804;20.476;2022-07-17T12:37:00;27.36;30.47
68867;SHT30;56451;44.804;20.476;2022-07-17T12:39:26;27.43;30.20
68867;SHT30;56451;44.804;20.476;2022-07-17T12:41:52;27.45;30.18
68867;SHT30;56451;44.804;20.476;2022-07-17T12:44:18;27.53;29.60
68867;SHT30;56451;44.804;20.476;2022-07-17T12:46:44;27.60;29.28
68867;SHT30;56451;44.804;20.476;2022-07-17T12:49:10;27.65;29.45
68867;SHT30;56451;44.804;20.476;2022-07-17T12:51:36;27.70;29.50
68867;SHT30;56451;44.804;20.476;2022-07-17T12:54:01;27.73;29.76
68867;SHT30;56451;44.804;20.476;2022-07-17T12:56:27;27.80;29.74
68867;SHT30;56451;44.804;20.476;2022-07-17T12:58:53;27.87;29.22
68867;SHT30;56451;44.804;20.476;2022-07-17T13:01:19;27.97;29.23
68867;SHT30;56451;44.804;20.476;2022-07-17T13:03:46;27.98;29.36
68867;SHT30;56451;44.804;20.476;2022-07-17T13:06:12;28.04;28.24
68867;SHT30;56451;44.804;20.476;2022-07-17T13:08:38;27.96;27.93
68867;SHT30;56451;44.804;20.476;2022-07-17T13:11:04;27.98;27.71
68867;SHT30;56451;44.804;20.476;2022-07-17T13:13:30;27.94;27.62
68867;SHT30;56451;44.804;20.476;2022-07-17T13:15:56;27.90;28.11
68867;SHT30;56451;44.804;20.476;2022-07-17T13:18:22;27.92;28.48
68867;SHT30;56451;44.804;20.476;2022-07-17T13:20:49;27.96;28.19
68867;SHT30;56451;44.804;20.476;2022-07-17T13:23:15;27.98;27.69
68867;SHT30;56451;44.804;20.476;2022-07-17T13:25:42;28.03;27.78
68867;SHT30;56451;44.804;20.476;2022-07-17T13:28:10;28.07;27.98
68867;SHT30;56451;44.804;20.476;2022-07-17T13:30:37;28.14;27.58
68867;SHT30;56451;44.804;20.476;2022-07-17T13:33:03;28.21;27.70
68867;SHT30;56451;44.804;20.476;2022-07-17T13:35:29;28.24;27.84
68867;SHT30;56451;44.804;20.476;2022-07-17T13:37:55;28.29;27.74
68867;SHT30;56451;44.804;20.476;2022-07-17T13:40:23;28.37;27.62
68867;SHT30;56451;44.804;20.476;2022-07-17T13:42:51;28.40;28.19
68867;SHT30;56451;44.804;20.476;2022-07-17T13:45:17;28.53;27.48
68867;SHT30;56451;44.804;20.476;2022-07-17T13:47:42;28.55;27.34
68867;SHT30;56451;44.804;20.476;2022-07-17T13:50:09;28.56;27.50
68867;SHT30;56451;44.804;20.476;2022-07-17T13:52:36;28.45;27.26
68867;SHT30;56451;44.804;20.476;2022-07-17T13:55:06;28.40;27.38
68867;SHT30;56451;44.804;20.476;2022-07-17T13:57:32;28.38;27.29
68867;SHT30;56451;44.804;20.476;2022-07-17T13:59:58;28.45;27.46
68867;SHT30;56451;44.804;20.476;2022-07-17T14:02:24;28.52;29.54
68867;SHT30;56451;44.804;20.476;2022-07-17T14:04:50;28.35;30.86
68867;SHT30;56451;44.804;20.476;2022-07-17T14:07:15;28.00;30.66
68867;SHT30;56451;44.804;20.476;2022-07-17T14:09:41;27.97;28.91
68867;SHT30;56451;44.804;20.476;2022-07-17T14:12:07;28.05;28.60
68867;SHT30;56451;44.804;20.476;2022-07-17T14:14:34;28.20;28.87
68867;SHT30;56451;44.804;20.476;2022-07-17T14:17:00;28.32;27.94
68867;SHT30;56451;44.804;20.476;2022-07-17T14:19:26;28.31;27.19
68867;SHT30;56451;44.804;20.476;2022-07-17T14:21:52;28.38;27.53
68867;SHT30;56451;44.804;20.476;2022-07-17T14:24:18;28.40;27.63
68867;SHT30;56451;44.804;20.476;2022-07-17T14:26:44;28.45;27.52
68867;SHT30;56451;44.804;20.476;2022-07-17T14:29:12;28.55;27.28
68867;SHT30;56451;44.804;20.476;2022-07-17T14:31:37;28.65;26.98
68867;SHT30;56451;44.804;20.476;2022-07-17T14:34:03;28.76;27.13
68867;SHT30;56451;44.804;20.476;2022-07-17T14:36:29;28.86;27.55
68867;SHT30;56451;44.804;20.476;2022-07-17T14:38:55;28.95;26.44
68867;SHT30;56451;44.804;20.476;2022-07-17T14:41:20;28.96;26.10
68867;SHT30;56451;44.804;20.476;2022-07-17T14:43:47;29.02;25.37
68867;SHT30;56451;44.804;20.476;2022-07-17T14:46:13;29.11;25.75
68867;SHT30;56451;44.804;20.476;2022-07-17T14:48:38;29.24;25.41
68867;SHT30;56451;44.804;20.476;2022-07-17T14:51:04;29.30;24.46
68867;SHT30;56451;44.804;20.476;2022-07-17T14:53:30;29.34;24.74
68867;SHT30;56451;44.804;20.476;2022-07-17T14:55:56;29.26;25.06
68867;SHT30;56451;44.804;20.476;2022-07-17T14:58:22;29.20;24.98
68867;SHT30;56451;44.804;20.476;2022-07-17T15:00:48;29.19;25.13
68867;SHT30;56451;44.804;20.476;2022-07-17T15:03:14;29.20;25.58
68867;SHT30;56451;44.804;20.476;2022-07-17T15:05:40;29.27;25.26
68867;SHT30;56451;44.804;20.476;2022-07-17T15:08:06;29.31;25.02
68867;SHT30;56451;44.804;20.476;2022-07-17T15:10:32;29.34;25.14
68867;SHT30;56451;44.804;20.476;2022-07-17T15:12:59;29.34;24.74
68867;SHT30;56451;44.804;20.476;2022-07-17T15:15:25;29.38;24.34
68867;SHT30;56451;44.804;20.476;2022-07-17T15:17:52;29.46;24.36
68867;SHT30;56451;44.804;20.476;2022-07-17T15:20:18;29.47;22.77
68867;SHT30;56451;44.804;20.476;2022-07-17T15:22:44;29.53;22.76
68867;SHT30;56451;44.804;20.476;2022-07-17T15:25:10;29.54;22.68
68867;SHT30;56451;44.804;20.476;2022-07-17T15:27:36;29.61;22.47